sensor_id;sensor_type;location;lat;lon;timestamp;P1;durP1;ratioP1;P2;durP2;ratioP2
27644;SDS011;15054;57.152;-2.118;2022-10-16T00:01:30;1.67;;;0.40;;
27644;SDS011;15054;57.152;-2.118;2022-10-16T00:03:58;1.40;;;0.30;;
27644;SDS011;15054;57.152;-2.118;2022-10-16T00:06:27;1.55;;;0.40;;
27644;SDS011;15054;57.152;-2.118;2022-10-16T00:08:55;2.05;;;0.30;;
27644;SDS011;15054;57.152;-2.118;2022-10-16T00:11:24;2.22;;;0.38;;
27644;SDS011;15054;57.152;-2.118;2022-10-16T00:13:55;4.47;;;0.52;;
27644;SDS011;15054;57.152;-2.118;2022-10-16T00:16:24;0.55;;;0.30;;
27644;SDS011;15054;57.152;-2.118;2022-10-16T00:18:51;2.53;;;0.40;;
27644;SDS011;15054;57.152;-2.118;2022-10-16T00:21:20;1.60;;;0.38;;
27644;SDS011;15054;57.152;-2.118;2022-10-16T00:23:50;1.80;;;0.40;;
27644;SDS011;15054;57.152;-2.118;2022-10-16T00:26:20;1.15;;;0.47;;
27644;SDS011;15054;57.152;-2.118;2022-10-16T00:28:48;1.83;;;0.22;;
27644;SDS011;15054;57.152;-2.118;2022-10-16T00:31:18;4.72;;;0.60;;
27644;SDS011;15054;57.152;-2.118;2022-10-16T00:33:47;0.68;;;0.30;;
27644;SDS011;15054;57.152;-2.118;2022-10-16T00:36:15;4.45;;;0.57;;
27644;SDS011;15054;57.152;-2.118;2022-10-16T00:38:44;0.93;;;0.20;;
27644;SDS011;15054;57.152;-2.118;2022-10-16T00:41:13;1.77;;;0.25;;
27644;SDS011;15054;57.152;-2.118;2022-10-16T00:43:44;1.35;;;0.10;;
27644;SDS011;15054;57.152;-2.118;2022-10-16T00:46:15;0.85;;;0.30;;
27644;SDS011;15054;57.152;-2.118;2022-10-16T00:48:50;0.28;;;0.28;;
27644;SDS011;15054;57.152;-2.118;2022-10-16T00:51:33;0.95;;;0.43;;
27644;SDS011;15054;57.152;-2.118;2022-10-16T00:54:02;1.65;;;0.30;;
27644;SDS011;15054;57.152;-2.118;2022-10-16T00:56:33;0.77;;;0.40;;
27644;SDS011;15054;57.152;-2.118;2022-10-16T00:59:01;0.73;;;0.10;;
27644;SDS011;15054;57.152;-2.118;2022-10-16T01:01:33;0.63;;;0.40;;
27644;SDS011;15054;57.152;-2.118;2022-10-16T01:04:00;0.38;;;0.30;;
27644;SDS011;15054;57.152;-2.118;2022-10-16T01:06:40;3.03;;;0.40;;
27644;SDS011;15054;57.152;-2.118;2022-10-16T01:09:19;1.70;;;0.30;;
27644;SDS011;15054;57.152;-2.118;2022-10-16T01:20:40;1.58;;;0.30;;
27644;SDS011;15054;57.152;-2.118;2022-10-16T01:28:40;1.38;;;0.28;;
27644;SDS011;15054;57.152;-2.118;2022-10-16T01:31:30;0.60;;;0.20;;
27644;SDS011;15054;57.152;-2.118;2022-10-16T01:34:02;0.50;;;0.25;;
27644;SDS011;15054;57.152;-2.118;2022-10-16T01:36:54;1.45;;;0.20;;
27644;SDS011;15054;57.152;-2.118;2022-10-16T01:39:32;0.85;;;0.43;;
27644;SDS011;15054;57.152;-2.118;2022-10-16T01:42:11;1.05;;;0.20;;
27644;SDS011;15054;57.152;-2.118;2022-10-16T01:44:48;0.63;;;0.10;;
27644;SDS011;15054;57.152;-2.118;2022-10-16T01:47:19;1.42;;;0.32;;
27644;SDS011;15054;57.152;-2.118;2022-10-16T01:49:52;0.65;;;0.30;;
27644;SDS011;15054;57.152;-2.118;2022-10-16T01:52:21;0.82;;;0.22;;
27644;SDS011;15054;57.152;-2.118;2022-10-16T01:54:52;1.50;;;0.22;;
27644;SDS011;15054;57.152;-2.118;2022-10-16T01:57:22;1.55;;;0.20;;
27644;SDS011;15054;57.152;-2.118;2022-10-16T01:59:53;0.75;;;0.25;;
27644;SDS011;15054;57.152;-2.118;2022-10-16T02:02:22;0.98;;;0.30;;
27644;SDS011;15054;57.152;-2.118;2022-10-16T02:04:57;0.68;;;0.20;;
27644;SDS011;15054;57.152;-2.118;2022-10-16T02:07:28;2.50;;;0.70;;
27644;SDS011;15054;57.152;-2.118;2022-10-16T02:09:55;1.38;;;0.30;;
27644;SDS011;15054;57.152;-2.118;2022-10-16T02:12:32;1.75;;;0.30;;
27644;SDS011;15054;57.152;-2.118;2022-10-16T02:15:02;2.20;;;0.32;;
27644;SDS011;15054;57.152;-2.118;2022-10-16T02:17:30;1.20;;;0.30;;
27644;SDS011;15054;57.152;-2.118;2022-10-16T02:19:57;0.28;;;0.20;;
27644;SDS011;15054;57.152;-2.118;2022-10-16T02:22:47;3.10;;;0.30;;
27644;SDS011;15054;57.152;-2.118;2022-10-16T02:25:31;0.35;;;0.20;;
27644;SDS011;15054;57.152;-2.118;2022-10-16T02:28:08;0.90;;;0.25;;
27644;SDS011;15054;57.152;-2.118;2022-10-16T02:33:17;1.00;;;0.20;;
27644;SDS011;15054;57.152;-2.118;2022-10-16T02:35:46;0.63;;;0.30;;
27644;SDS011;15054;57.152;-2.118;2022-10-16T02:38:17;1.55;;;0.20;;
27644;SDS011;15054;57.152;-2.118;2022-10-16T02:40:45;0.68;;;0.10;;
27644;SDS011;15054;57.152;-2.118;2022-10-16T02:43:12;0.50;;;0.20;;
27644;SDS011;15054;57.152;-2.118;2022-10-16T02:45:40;0.20;;;0.20;;
27644;SDS011;15054;57.152;-2.118;2022-10-16T02:48:07;0.20;;;0.20;;
27644;SDS011;15054;57.152;-2.118;2022-10-16T02:50:34;0.20;;;0.20;;
27644;SDS011;15054;57.152;-2.118;2022-10-16T02:53:01;0.55;;;0.17;;
27644;SDS011;15054;57.152;-2.118;2022-10-16T02:55:28;0.65;;;0.20;;
27644;SDS011;15054;57.152;-2.118;2022-10-16T02:57:56;0.10;;;0.10;;
27644;SDS011;15054;57.152;-2.118;2022-10-16T03:00:23;0.52;;;0.20;;
27644;SDS011;15054;57.152;-2.118;2022-10-16T03:02:50;1.23;;;0.32;;
27644;SDS011;15054;57.152;-2.118;2022-10-16T03:05:17;0.73;;;0.17;;
27644;SDS011;15054;57.152;-2.118;2022-10-16T03:07:45;0.10;;;0.10;;
27644;SDS011;15054;57.152;-2.118;2022-10-16T03:10:12;0.00;;;0.00;;
27644;SDS011;15054;57.152;-2.118;2022-10-16T03:12:39;0.08;;;0.08;;
27644;SDS011;15054;57.152;-2.118;2022-10-16T03:15:06;0.10;;;0.10;;
27644;SDS011;15054;57.152;-2.118;2022-10-16T03:17:34;0.22;;;0.10;;
27644;SDS011;15054;57.152;-2.118;2022-10-16T03:20:02;0.00;;;0.00;;
27644;SDS011;15054;57.152;-2.118;2022-10-16T03:22:30;0.00;;;0.00;;
27644;SDS011;15054;57.152;-2.118;2022-10-16T03:24:57;0.00;;;0.00;;
27644;SDS011;15054;57.152;-2.118;2022-10-16T03:27:24;0.03;;;0.03;;
27644;SDS011;15054;57.152;-2.118;2022-10-16T03:29:52;1.40;;;0.10;;
27644;SDS011;15054;57.152;-2.118;2022-10-16T03:32:19;0.05;;;0.00;;
27644;SDS011;15054;57.152;-2.118;2022-10-16T03:34:47;0.00;;;0.00;;
27644;SDS011;15054;57.152;-2.118;2022-10-16T03:37:14;1.45;;;0.08;;
27644;SDS011;15054;57.152;-2.118;2022-10-16T03:39:41;0.00;;;0.00;;
27644;SDS011;15054;57.152;-2.118;2022-10-16T03:42:08;0.08;;;0.08;;
27644;SDS011;15054;57.152;-2.118;2022-10-16T03:44:35;0.10;;;0.10;;
27644;SDS011;15054;57.152;-2.118;2022-10-16T03:47:02;0.00;;;0.00;;
27644;SDS011;15054;57.152;-2.118;2022-10-16T03:49:30;0.00;;;0.00;;
27644;SDS011;15054;57.152;-2.118;2022-10-16T03:51:57;0.00;;;0.00;;
27644;SDS011;15054;57.152;-2.118;2022-10-16T03:54:24;0.00;;;0.00;;
27644;SDS011;15054;57.152;-2.118;2022-10-16T03:56:51;0.00;;;0.00;;
27644;SDS011;15054;57.152;-2.118;2022-10-16T03:59:19;0.20;;;0.00;;
27644;SDS011;15054;57.152;-2.118;2022-10-16T04:01:46;0.00;;;0.00;;
27644;SDS011;15054;57.152;-2.118;2022-10-16T04:04:13;0.10;;;0.10;;
27644;SDS011;15054;57.152;-2.118;2022-10-16T04:06:40;0.10;;;0.08;;
27644;SDS011;15054;57.152;-2.118;2022-10-16T04:09:07;0.00;;;0.00;;
27644;SDS011;15054;57.152;-2.118;2022-10-16T04:11:34;0.03;;;0.00;;
27644;SDS011;15054;57.152;-2.118;2022-10-16T04:14:01;0.00;;;0.00;;
27644;SDS011;15054;57.152;-2.118;2022-10-16T04:16:29;0.00;;;0.00;;
27644;SDS011;15054;57.152;-2.118;2022-10-16T04:18:56;0.20;;;0.10;;
27644;SDS011;15054;57.152;-2.118;2022-10-16T04:21:23;0.00;;;0.00;;
27644;SDS011;15054;57.152;-2.118;2022-10-16T04:23:50;0.10;;;0.10;;
27644;SDS011;15054;57.152;-2.118;2022-10-16T04:26:17;0.00;;;0.00;;
27644;SDS011;15054;57.152;-2.118;2022-10-16T04:28:44;0.93;;;0.10;;
27644;SDS011;15054;57.152;-2.118;2022-10-16T04:31:12;0.10;;;0.10;;
27644;SDS011;15054;57.152;-2.118;2022-10-16T04:33:40;0.10;;;0.10;;
27644;SDS011;15054;57.152;-2.118;2022-10-16T04:36:09;0.10;;;0.10;;
27644;SDS011;15054;57.152;-2.118;2022-10-16T04:38:36;0.10;;;0.10;;
27644;SDS011;15054;57.152;-2.118;2022-10-16T04:41:04;0.57;;;0.13;;
27644;SDS011;15054;57.152;-2.118;2022-10-16T04:43:31;0.00;;;0.00;;
27644;SDS011;15054;57.152;-2.118;2022-10-16T04:45:59;0.00;;;0.00;;
27644;SDS011;15054;57.152;-2.118;2022-10-16T04:48:27;0.10;;;0.10;;
27644;SDS011;15054;57.152;-2.118;2022-10-16T04:50:54;0.10;;;0.10;;
27644;SDS011;15054;57.152;-2.118;2022-10-16T04:53:21;0.00;;;0.00;;
27644;SDS011;15054;57.152;-2.118;2022-10-16T04:55:49;0.00;;;0.00;;
27644;SDS011;15054;57.152;-2.118;2022-10-16T04:58:17;0.10;;;0.10;;
27644;SDS011;15054;57.152;-2.118;2022-10-16T05:00:44;0.13;;;0.10;;
27644;SDS011;15054;57.152;-2.118;2022-10-16T05:03:13;0.20;;;0.05;;
27644;SDS011;15054;57.152;-2.118;2022-10-16T05:05:44;3.20;;;0.10;;
27644;SDS011;15054;57.152;-2.118;2022-10-16T05:08:17;0.28;;;0.10;;
27644;SDS011;15054;57.152;-2.118;2022-10-16T05:10:44;0.00;;;0.00;;
27644;SDS011;15054;57.152;-2.118;2022-10-16T05:13:12;0.55;;;0.10;;
27644;SDS011;15054;57.152;-2.118;2022-10-16T05:15:42;1.27;;;0.10;;
27644;SDS011;15054;57.152;-2.118;2022-10-16T05:18:13;1.17;;;0.13;;
27644;SDS011;15054;57.152;-2.118;2022-10-16T05:20:41;0.15;;;0.15;;
27644;SDS011;15054;57.152;-2.118;2022-10-16T05:23:09;0.35;;;0.10;;
27644;SDS011;15054;57.152;-2.118;2022-10-16T05:25:39;0.08;;;0.08;;
27644;SDS011;15054;57.152;-2.118;2022-10-16T05:28:06;0.28;;;0.10;;
27644;SDS011;15054;57.152;-2.118;2022-10-16T05:33:05;0.08;;;0.08;;
27644;SDS011;15054;57.152;-2.118;2022-10-16T05:35:32;0.20;;;0.10;;
27644;SDS011;15054;57.152;-2.118;2022-10-16T05:38:00;0.00;;;0.00;;
27644;SDS011;15054;57.152;-2.118;2022-10-16T05:40:27;0.20;;;0.10;;
27644;SDS011;15054;57.152;-2.118;2022-10-16T05:42:55;0.05;;;0.05;;
27644;SDS011;15054;57.152;-2.118;2022-10-16T05:45:22;0.10;;;0.10;;
27644;SDS011;15054;57.152;-2.118;2022-10-16T05:47:50;0.10;;;0.10;;
27644;SDS011;15054;57.152;-2.118;2022-10-16T05:50:17;0.20;;;0.17;;
27644;SDS011;15054;57.152;-2.118;2022-10-16T05:52:44;0.10;;;0.10;;
27644;SDS011;15054;57.152;-2.118;2022-10-16T05:55:11;0.40;;;0.40;;
27644;SDS011;15054;57.152;-2.118;2022-10-16T05:57:38;0.00;;;0.00;;
27644;SDS011;15054;57.152;-2.118;2022-10-16T06:00:05;0.08;;;0.08;;
27644;SDS011;15054;57.152;-2.118;2022-10-16T06:02:37;0.30;;;0.10;;
27644;SDS011;15054;57.152;-2.118;2022-10-16T06:05:05;0.10;;;0.10;;
27644;SDS011;15054;57.152;-2.118;2022-10-16T06:07:36;0.10;;;0.10;;
27644;SDS011;15054;57.152;-2.118;2022-10-16T06:10:03;0.25;;;0.10;;
27644;SDS011;15054;57.152;-2.118;2022-10-16T06:12:31;0.63;;;0.10;;
27644;SDS011;15054;57.152;-2.118;2022-10-16T06:14:58;0.05;;;0.05;;
27644;SDS011;15054;57.152;-2.118;2022-10-16T06:17:25;0.77;;;0.10;;
27644;SDS011;15054;57.152;-2.118;2022-10-16T06:19:52;0.10;;;0.10;;
27644;SDS011;15054;57.152;-2.118;2022-10-16T06:22:19;0.60;;;0.10;;
27644;SDS011;15054;57.152;-2.118;2022-10-16T06:24:46;0.95;;;0.10;;
27644;SDS011;15054;57.152;-2.118;2022-10-16T06:27:14;0.10;;;0.10;;
27644;SDS011;15054;57.152;-2.118;2022-10-16T06:29:41;0.10;;;0.10;;
27644;SDS011;15054;57.152;-2.118;2022-10-16T06:32:09;0.60;;;0.10;;
27644;SDS011;15054;57.152;-2.118;2022-10-16T06:34:36;0.13;;;0.13;;
27644;SDS011;15054;57.152;-2.118;2022-10-16T06:37:08;0.10;;;0.10;;
27644;SDS011;15054;57.152;-2.118;2022-10-16T06:39:35;0.10;;;0.10;;
27644;SDS011;15054;57.152;-2.118;2022-10-16T06:42:02;0.15;;;0.10;;
27644;SDS011;15054;57.152;-2.118;2022-10-16T06:44:34;0.68;;;0.20;;
27644;SDS011;15054;57.152;-2.118;2022-10-16T06:47:01;0.15;;;0.10;;
27644;SDS011;15054;57.152;-2.118;2022-10-16T06:49:29;0.57;;;0.20;;
